sensor_id;sensor_type;location;lat;lon;timestamp;P1;durP1;ratioP1;P2;durP2;ratioP2
78183;SDS011;67442;44.570;18.610;2024-01-16T00:02:03;104.00;;;38.33;;
78183;SDS011;67442;44.570;18.610;2024-01-16T00:04:30;37.15;;;14.48;;
78183;SDS011;67442;44.570;18.610;2024-01-16T00:06:58;91.15;;;28.85;;
78183;SDS011;67442;44.570;18.610;2024-01-16T00:09:26;29.27;;;12.02;;
78183;SDS011;67442;44.570;18.610;2024-01-16T00:11:53;25.95;;;11.25;;
78183;SDS011;67442;44.570;18.610;2024-01-16T00:14:21;69.78;;;23.55;;
78183;SDS011;67442;44.570;18.610;2024-01-16T00:16:52;44.85;;;18.23;;
78183;SDS011;67442;44.570;18.610;2024-01-16T00:19:20;66.70;;;24.90;;
78183;SDS011;67442;44.570;18.610;2024-01-16T00:21:47;40.17;;;16.48;;
78183;SDS011;67442;44.570;18.610;2024-01-16T00:24:19;58.22;;;21.95;;
78183;SDS011;67442;44.570;18.610;2024-01-16T00:26:49;66.55;;;22.67;;
78183;SDS011;67442;44.570;18.610;2024-01-16T00:29:20;104.70;;;33.67;;
78183;SDS011;67442;44.570;18.610;2024-01-16T00:31:51;82.25;;;28.13;;
78183;SDS011;67442;44.570;18.610;2024-01-16T00:34:23;92.32;;;30.83;;
78183;SDS011;67442;44.570;18.610;2024-01-16T00:36:50;71.45;;;23.98;;
78183;SDS011;67442;44.570;18.610;2024-01-16T00:39:22;76.40;;;25.38;;
78183;SDS011;67442;44.570;18.610;2024-01-16T00:41:49;82.13;;;28.13;;
78183;SDS011;67442;44.570;18.610;2024-01-16T00:44:17;89.32;;;31.40;;
78183;SDS011;67442;44.570;18.610;2024-01-16T00:46:44;86.70;;;31.33;;
78183;SDS011;67442;44.570;18.610;2024-01-16T00:49:11;75.30;;;31.42;;
78183;SDS011;67442;44.570;18.610;2024-01-16T00:51:43;100.25;;;38.05;;
78183;SDS011;67442;44.570;18.610;2024-01-16T00:54:11;99.95;;;31.55;;
78183;SDS011;67442;44.570;18.610;2024-01-16T00:56:38;100.03;;;33.45;;
78183;SDS011;67442;44.570;18.610;2024-01-16T00:59:12;85.45;;;30.33;;
78183;SDS011;67442;44.570;18.610;2024-01-16T01:01:39;88.80;;;30.50;;
78183;SDS011;67442;44.570;18.610;2024-01-16T01:04:06;154.48;;;49.83;;
78183;SDS011;67442;44.570;18.610;2024-01-16T01:06:35;128.48;;;44.25;;
78183;SDS011;67442;44.570;18.610;2024-01-16T01:09:02;127.40;;;47.38;;
78183;SDS011;67442;44.570;18.610;2024-01-16T01:11:30;114.35;;;41.03;;
78183;SDS011;67442;44.570;18.610;2024-01-16T01:13:57;157.73;;;51.03;;
78183;SDS011;67442;44.570;18.610;2024-01-16T01:16:25;125.40;;;43.15;;
78183;SDS011;67442;44.570;18.610;2024-01-16T01:18:56;118.85;;;39.95;;
78183;SDS011;67442;44.570;18.610;2024-01-16T01:21:28;85.40;;;32.78;;
78183;SDS011;67442;44.570;18.610;2024-01-16T01:23:55;98.72;;;35.10;;
78183;SDS011;67442;44.570;18.610;2024-01-16T01:26:22;109.85;;;38.60;;
78183;SDS011;67442;44.570;18.610;2024-01-16T01:28:54;103.85;;;37.60;;
78183;SDS011;67442;44.570;18.610;2024-01-16T01:31:22;147.15;;;53.30;;
78183;SDS011;67442;44.570;18.610;2024-01-16T01:33:50;219.68;;;71.05;;
78183;SDS011;67442;44.570;18.610;2024-01-16T01:36:17;194.77;;;67.35;;
78183;SDS011;67442;44.570;18.610;2024-01-16T01:38:48;178.65;;;64.28;;
78183;SDS011;67442;44.570;18.610;2024-01-16T01:41:16;171.48;;;60.80;;
78183;SDS011;67442;44.570;18.610;2024-01-16T01:43:46;168.95;;;58.22;;
78183;SDS011;67442;44.570;18.610;2024-01-16T01:46:14;141.90;;;50.45;;
78183;SDS011;67442;44.570;18.610;2024-01-16T01:48:45;127.88;;;49.13;;
78183;SDS011;67442;44.570;18.610;2024-01-16T01:51:19;140.60;;;50.90;;
78183;SDS011;67442;44.570;18.610;2024-01-16T01:53:47;146.63;;;53.33;;
78183;SDS011;67442;44.570;18.610;2024-01-16T01:56:19;204.52;;;67.47;;
78183;SDS011;67442;44.570;18.610;2024-01-16T01:58:48;180.20;;;63.90;;
78183;SDS011;67442;44.570;18.610;2024-01-16T02:01:18;197.05;;;77.05;;
78183;SDS011;67442;44.570;18.610;2024-01-16T02:03:48;165.73;;;60.53;;
78183;SDS011;67442;44.570;18.610;2024-01-16T02:06:20;187.23;;;68.78;;
78183;SDS011;67442;44.570;18.610;2024-01-16T02:08:47;165.23;;;61.50;;
78183;SDS011;67442;44.570;18.610;2024-01-16T02:11:15;104.85;;;38.97;;
78183;SDS011;67442;44.570;18.610;2024-01-16T02:13:43;154.30;;;58.55;;
78183;SDS011;67442;44.570;18.610;2024-01-16T02:16:22;197.70;;;66.30;;
78183;SDS011;67442;44.570;18.610;2024-01-16T02:18:50;216.45;;;74.70;;
78183;SDS011;67442;44.570;18.610;2024-01-16T02:21:18;188.20;;;64.10;;
78183;SDS011;67442;44.570;18.610;2024-01-16T02:23:52;197.93;;;67.32;;
78183;SDS011;67442;44.570;18.610;2024-01-16T02:26:19;205.60;;;67.50;;
78183;SDS011;67442;44.570;18.610;2024-01-16T02:28:50;213.95;;;72.60;;
78183;SDS011;67442;44.570;18.610;2024-01-16T02:31:21;161.13;;;56.00;;
78183;SDS011;67442;44.570;18.610;2024-01-16T02:33:48;149.43;;;47.50;;
78183;SDS011;67442;44.570;18.610;2024-01-16T02:36:20;159.82;;;54.08;;
78183;SDS011;67442;44.570;18.610;2024-01-16T02:38:51;169.25;;;58.50;;
78183;SDS011;67442;44.570;18.610;2024-01-16T02:41:18;131.77;;;47.13;;
78183;SDS011;67442;44.570;18.610;2024-01-16T02:43:46;166.10;;;57.42;;
78183;SDS011;67442;44.570;18.610;2024-01-16T02:46:14;139.02;;;49.90;;
78183;SDS011;67442;44.570;18.610;2024-01-16T02:48:41;160.88;;;58.95;;
78183;SDS011;67442;44.570;18.610;2024-01-16T02:51:13;120.43;;;43.50;;
78183;SDS011;67442;44.570;18.610;2024-01-16T02:53:41;163.38;;;57.83;;
78183;SDS011;67442;44.570;18.610;2024-01-16T02:56:12;146.40;;;52.97;;
78183;SDS011;67442;44.570;18.610;2024-01-16T02:58:43;145.93;;;55.80;;
78183;SDS011;67442;44.570;18.610;2024-01-16T03:01:14;160.48;;;58.50;;
78183;SDS011;67442;44.570;18.610;2024-01-16T03:03:44;142.50;;;52.55;;
78183;SDS011;67442;44.570;18.610;2024-01-16T03:06:21;147.23;;;54.30;;
78183;SDS011;67442;44.570;18.610;2024-01-16T03:08:49;144.45;;;54.22;;
78183;SDS011;67442;44.570;18.610;2024-01-16T03:11:17;185.57;;;69.90;;
78183;SDS011;67442;44.570;18.610;2024-01-16T03:13:48;206.52;;;72.30;;
78183;SDS011;67442;44.570;18.610;2024-01-16T03:16:21;139.90;;;51.13;;
78183;SDS011;67442;44.570;18.610;2024-01-16T03:18:48;136.70;;;50.80;;
78183;SDS011;67442;44.570;18.610;2024-01-16T03:21:16;175.13;;;58.83;;
78183;SDS011;67442;44.570;18.610;2024-01-16T03:23:44;122.68;;;46.55;;
78183;SDS011;67442;44.570;18.610;2024-01-16T03:26:12;151.48;;;55.90;;
78183;SDS011;67442;44.570;18.610;2024-01-16T03:28:40;161.82;;;57.70;;
78183;SDS011;67442;44.570;18.610;2024-01-16T03:31:07;175.02;;;62.22;;
78183;SDS011;67442;44.570;18.610;2024-01-16T03:33:38;192.23;;;66.38;;
78183;SDS011;67442;44.570;18.610;2024-01-16T03:36:08;150.85;;;54.30;;
78183;SDS011;67442;44.570;18.610;2024-01-16T03:38:35;152.77;;;55.35;;
78183;SDS011;67442;44.570;18.610;2024-01-16T03:41:03;186.45;;;66.97;;
78183;SDS011;67442;44.570;18.610;2024-01-16T03:43:33;167.20;;;59.50;;
78183;SDS011;67442;44.570;18.610;2024-01-16T03:46:01;149.10;;;54.20;;
78183;SDS011;67442;44.570;18.610;2024-01-16T03:48:28;162.45;;;58.10;;
78183;SDS011;67442;44.570;18.610;2024-01-16T03:50:59;151.43;;;53.33;;
78183;SDS011;67442;44.570;18.610;2024-01-16T03:53:28;110.93;;;40.70;;
78183;SDS011;67442;44.570;18.610;2024-01-16T03:55:55;118.32;;;43.65;;
78183;SDS011;67442;44.570;18.610;2024-01-16T03:58:23;142.38;;;51.03;;
78183;SDS011;67442;44.570;18.610;2024-01-16T04:00:51;177.68;;;63.17;;
78183;SDS011;67442;44.570;18.610;2024-01-16T04:03:19;232.73;;;78.57;;
78183;SDS011;67442;44.570;18.610;2024-01-16T04:05:46;182.10;;;67.97;;
78183;SDS011;67442;44.570;18.610;2024-01-16T04:08:17;154.25;;;56.28;;
78183;SDS011;67442;44.570;18.610;2024-01-16T04:10:45;221.73;;;80.70;;
78183;SDS011;67442;44.570;18.610;2024-01-16T04:13:16;183.98;;;67.50;;
78183;SDS011;67442;44.570;18.610;2024-01-16T04:15:44;147.70;;;53.30;;
78183;SDS011;67442;44.570;18.610;2024-01-16T04:18:11;156.90;;;56.40;;
78183;SDS011;67442;44.570;18.610;2024-01-16T04:20:39;149.10;;;55.60;;
78183;SDS011;67442;44.570;18.610;2024-01-16T04:23:07;148.95;;;54.03;;
78183;SDS011;67442;44.570;18.610;2024-01-16T04:25:39;115.00;;;45.25;;
78183;SDS011;67442;44.570;18.610;2024-01-16T04:28:11;131.93;;;50.63;;
78183;SDS011;67442;44.570;18.610;2024-01-16T04:30:38;238.18;;;82.40;;
78183;SDS011;67442;44.570;18.610;2024-01-16T04:33:09;170.50;;;61.90;;
78183;SDS011;67442;44.570;18.610;2024-01-16T04:35:41;152.10;;;53.03;;
78183;SDS011;67442;44.570;18.610;2024-01-16T04:38:08;188.15;;;71.50;;
78183;SDS011;67442;44.570;18.610;2024-01-16T04:40:35;211.57;;;75.50;;
78183;SDS011;67442;44.570;18.610;2024-01-16T04:43:03;147.75;;;51.88;;
78183;SDS011;67442;44.570;18.610;2024-01-16T04:45:31;144.82;;;51.38;;
78183;SDS011;67442;44.570;18.610;2024-01-16T04:48:02;190.57;;;62.63;;
78183;SDS011;67442;44.570;18.610;2024-01-16T04:50:29;211.30;;;74.20;;
78183;SDS011;67442;44.570;18.610;2024-01-16T04:52:59;198.00;;;70.30;;
78183;SDS011;67442;44.570;18.610;2024-01-16T04:55:27;213.82;;;71.88;;
78183;SDS011;67442;44.570;18.610;2024-01-16T04:57:55;144.80;;;50.92;;
78183;SDS011;67442;44.570;18.610;2024-01-16T05:00:28;150.23;;;53.13;;
78183;SDS011;67442;44.570;18.610;2024-01-16T05:02:55;120.43;;;44.83;;
78183;SDS011;67442;44.570;18.610;2024-01-16T05:05:22;111.15;;;38.53;;
78183;SDS011;67442;44.570;18.610;2024-01-16T05:07:54;58.65;;;21.90;;
78183;SDS011;67442;44.570;18.610;2024-01-16T05:10:21;54.10;;;22.55;;
78183;SDS011;67442;44.570;18.610;2024-01-16T05:12:48;57.90;;;22.35;;
78183;SDS011;67442;44.570;18.610;2024-01-16T05:15:16;79.47;;;30.45;;
78183;SDS011;67442;44.570;18.610;2024-01-16T05:17:47;106.47;;;37.45;;
78183;SDS011;67442;44.570;18.610;2024-01-16T05:20:18;133.05;;;48.03;;
78183;SDS011;67442;44.570;18.610;2024-01-16T05:22:47;124.38;;;46.05;;
78183;SDS011;67442;44.570;18.610;2024-01-16T05:25:18;184.77;;;61.67;;
78183;SDS011;67442;44.570;18.610;2024-01-16T05:27:50;185.73;;;62.53;;
78183;SDS011;67442;44.570;18.610;2024-01-16T05:30:18;147.35;;;53.75;;
78183;SDS011;67442;44.570;18.610;2024-01-16T05:32:45;175.60;;;60.70;;
78183;SDS011;67442;44.570;18.610;2024-01-16T05:35:12;204.13;;;70.22;;
78183;SDS011;67442;44.570;18.610;2024-01-16T05:37:43;147.85;;;54.33;;
78183;SDS011;67442;44.570;18.610;2024-01-16T05:40:11;127.85;;;46.60;;
78183;SDS011;67442;44.570;18.610;2024-01-16T05:42:37;108.13;;;38.97;;
78183;SDS011;67442;44.570;18.610;2024-01-16T05:45:09;109.80;;;40.47;;
78183;SDS011;67442;44.570;18.610;2024-01-16T05:47:36;139.68;;;50.47;;
78183;SDS011;67442;44.570;18.610;2024-01-16T05:50:04;165.27;;;57.38;;
78183;SDS011;67442;44.570;18.610;2024-01-16T05:52:34;179.43;;;66.55;;
78183;SDS011;67442;44.570;18.610;2024-01-16T05:55:03;169.02;;;58.83;;
78183;SDS011;67442;44.570;18.610;2024-01-16T05:57:31;150.85;;;53.03;;
78183;SDS011;67442;44.570;18.610;2024-01-16T06:00:03;117.88;;;41.65;;
78183;SDS011;67442;44.570;18.610;2024-01-16T06:02:32;103.80;;;35.40;;
78183;SDS011;67442;44.570;18.610;2024-01-16T06:05:03;105.70;;;38.28;;
78183;SDS011;67442;44.570;18.610;2024-01-16T06:07:32;121.22;;;43.55;;
78183;SDS011;67442;44.570;18.610;2024-01-16T06:10:00;205.98;;;64.93;;
78183;SDS011;67442;44.570;18.610;2024-01-16T06:12:27;85.43;;;32.22;;
78183;SDS011;67442;44.570;18.610;2024-01-16T06:14:55;81.50;;;29.85;;
78183;SDS011;67442;44.570;18.610;2024-01-16T06:17:23;69.75;;;27.63;;
78183;SDS011;67442;44.570;18.610;2024-01-16T06:19:55;75.50;;;26.45;;
78183;SDS011;67442;44.570;18.610;2024-01-16T06:22:23;67.03;;;25.75;;
78183;SDS011;67442;44.570;18.610;2024-01-16T06:24:54;77.47;;;27.77;;
78183;SDS011;67442;44.570;18.610;2024-01-16T06:27:22;65.10;;;25.38;;
78183;SDS011;67442;44.570;18.610;2024-01-16T06:29:49;75.25;;;28.40;;
78183;SDS011;67442;44.570;18.610;2024-01-16T06:32:17;96.43;;;33.25;;
78183;SDS011;67442;44.570;18.610;2024-01-16T06:34:45;113.97;;;37.95;;
78183;SDS011;67442;44.570;18.610;2024-01-16T06:37:16;113.80;;;40.08;;
78183;SDS011;67442;44.570;18.610;2024-01-16T06:39:44;101.63;;;39.08;;
78183;SDS011;67442;44.570;18.610;2024-01-16T06:42:11;98.10;;;36.10;;
78183;SDS011;67442;44.570;18.610;2024-01-16T06:44:39;66.40;;;24.70;;
78183;SDS011;67442;44.570;18.610;2024-01-16T06:47:06;98.30;;;36.25;;
78183;SDS011;67442;44.570;18.610;2024-01-16T06:49:38;45.95;;;18.75;;
78183;SDS011;67442;44.570;18.610;2024-01-16T06:52:09;29.60;;;12.70;;
78183;SDS011;67442;44.570;18.610;2024-01-16T06:54:37;47.15;;;18.05;;
78183;SDS011;67442;44.570;18.610;2024-01-16T06:57:04;62.45;;;25.25;;
78183;SDS011;67442;44.570;18.610;2024-01-16T06:59:32;48.83;;;20.23;;
78183;SDS011;67442;44.570;18.610;2024-01-16T07:01:59;95.85;;;40.83;;
78183;SDS011;67442;44.570;18.610;2024-01-16T07:04:27;86.13;;;35.08;;
78183;SDS011;67442;44.570;18.610;2024-01-16T07:06:54;94.50;;;36.90;;
78183;SDS011;67442;44.570;18.610;2024-01-16T07:09:22;102.80;;;35.53;;
78183;SDS011;67442;44.570;18.610;2024-01-16T07:11:53;80.80;;;33.47;;
78183;SDS011;67442;44.570;18.610;2024-01-16T07:14:20;115.03;;;46.70;;
78183;SDS011;67442;44.570;18.610;2024-01-16T07:16:48;176.63;;;67.57;;
78183;SDS011;67442;44.570;18.610;2024-01-16T07:19:19;155.32;;;60.17;;
78183;SDS011;67442;44.570;18.610;2024-01-16T07:21:47;182.65;;;68.22;;
78183;SDS011;67442;44.570;18.610;2024-01-16T07:24:14;195.70;;;75.18;;
78183;SDS011;67442;44.570;18.610;2024-01-16T07:26:42;182.98;;;73.60;;
78183;SDS011;67442;44.570;18.610;2024-01-16T07:29:09;212.73;;;79.20;;
78183;SDS011;67442;44.570;18.610;2024-01-16T07:31:41;196.05;;;73.93;;
78183;SDS011;67442;44.570;18.610;2024-01-16T07:34:09;159.07;;;63.28;;
78183;SDS011;67442;44.570;18.610;2024-01-16T07:36:37;296.73;;;156.23;;
78183;SDS011;67442;44.570;18.610;2024-01-16T07:39:07;139.13;;;58.55;;
78183;SDS011;67442;44.570;18.610;2024-01-16T07:41:35;144.02;;;54.90;;
78183;SDS011;67442;44.570;18.610;2024-01-16T07:44:06;136.70;;;56.42;;
78183;SDS011;67442;44.570;18.610;2024-01-16T07:46:34;130.68;;;53.72;;
78183;SDS011;67442;44.570;18.610;2024-01-16T07:49:06;176.23;;;69.38;;
78183;SDS011;67442;44.570;18.610;2024-01-16T07:51:33;171.40;;;70.50;;
78183;SDS011;67442;44.570;18.610;2024-01-16T07:54:04;173.65;;;68.15;;
78183;SDS011;67442;44.570;18.610;2024-01-16T07:56:51;199.88;;;80.63;;
78183;SDS011;67442;44.570;18.610;2024-01-16T07:59:19;211.85;;;79.50;;
78183;SDS011;67442;44.570;18.610;2024-01-16T08:01:47;198.10;;;80.90;;
78183;SDS011;67442;44.570;18.610;2024-01-16T08:04:15;184.10;;;73.95;;
78183;SDS011;67442;44.570;18.610;2024-01-16T08:06:46;174.48;;;71.63;;
78183;SDS011;67442;44.570;18.610;2024-01-16T08:09:13;193.85;;;78.20;;
78183;SDS011;67442;44.570;18.610;2024-01-16T08:11:45;201.90;;;83.70;;
78183;SDS011;67442;44.570;18.610;2024-01-16T08:14:13;207.80;;;85.20;;
78183;SDS011;67442;44.570;18.610;2024-01-16T08:16:41;229.38;;;96.00;;
78183;SDS011;67442;44.570;18.610;2024-01-16T08:19:08;203.32;;;83.70;;
78183;SDS011;67442;44.570;18.610;2024-01-16T08:21:36;217.68;;;91.70;;
78183;SDS011;67442;44.570;18.610;2024-01-16T08:24:04;223.98;;;97.30;;
78183;SDS011;67442;44.570;18.610;2024-01-16T08:26:32;213.88;;;90.50;;
78183;SDS011;67442;44.570;18.610;2024-01-16T08:29:00;237.82;;;100.30;;
78183;SDS011;67442;44.570;18.610;2024-01-16T08:31:27;302.55;;;115.18;;
78183;SDS011;67442;44.570;18.610;2024-01-16T08:33:55;284.30;;;117.00;;
78183;SDS011;67442;44.570;18.610;2024-01-16T08:36:26;294.73;;;120.57;;
78183;SDS011;67442;44.570;18.610;2024-01-16T08:39:00;277.17;;;113.95;;
78183;SDS011;67442;44.570;18.610;2024-01-16T08:41:28;230.70;;;95.53;;
78183;SDS011;67442;44.570;18.610;2024-01-16T08:43:57;210.18;;;91.15;;
78183;SDS011;67442;44.570;18.610;2024-01-16T08:46:24;195.93;;;87.07;;
78183;SDS011;67442;44.570;18.610;2024-01-16T08:48:52;178.55;;;79.18;;
78183;SDS011;67442;44.570;18.610;2024-01-16T08:51:20;186.13;;;81.15;;
78183;SDS011;67442;44.570;18.610;2024-01-16T08:53:48;194.73;;;84.35;;
78183;SDS011;67442;44.570;18.610;2024-01-16T08:56:15;179.75;;;77.93;;
78183;SDS011;67442;44.570;18.610;2024-01-16T08:58:43;177.63;;;84.07;;
78183;SDS011;67442;44.570;18.610;2024-01-16T09:01:14;204.90;;;87.82;;
78183;SDS011;67442;44.570;18.610;2024-01-16T09:03:42;201.80;;;86.45;;
78183;SDS011;67442;44.570;18.610;2024-01-16T09:06:14;186.32;;;82.00;;
78183;SDS011;67442;44.570;18.610;2024-01-16T09:08:41;169.75;;;77.43;;
78183;SDS011;67442;44.570;18.610;2024-01-16T09:11:09;171.95;;;74.38;;
78183;SDS011;67442;44.570;18.610;2024-01-16T09:13:40;147.38;;;63.90;;
78183;SDS011;67442;44.570;18.610;2024-01-16T09:16:14;116.10;;;54.25;;
78183;SDS011;67442;44.570;18.610;2024-01-16T09:18:43;113.13;;;50.17;;
78183;SDS011;67442;44.570;18.610;2024-01-16T09:21:14;120.38;;;57.95;;
78183;SDS011;67442;44.570;18.610;2024-01-16T09:23:46;134.07;;;60.90;;
78183;SDS011;67442;44.570;18.610;2024-01-16T09:26:18;123.03;;;56.97;;
78183;SDS011;67442;44.570;18.610;2024-01-16T09:28:46;132.55;;;59.65;;
78183;SDS011;67442;44.570;18.610;2024-01-16T09:31:15;106.90;;;50.33;;
78183;SDS011;67442;44.570;18.610;2024-01-16T09:33:41;121.97;;;49.97;;
78183;SDS011;67442;44.570;18.610;2024-01-16T09:36:09;111.13;;;48.97;;
78183;SDS011;67442;44.570;18.610;2024-01-16T09:38:36;151.68;;;66.68;;
78183;SDS011;67442;44.570;18.610;2024-01-16T09:41:11;112.88;;;50.47;;
78183;SDS011;67442;44.570;18.610;2024-01-16T09:43:44;150.52;;;74.05;;
78183;SDS011;67442;44.570;18.610;2024-01-16T09:46:16;99.50;;;44.55;;
78183;SDS011;67442;44.570;18.610;2024-01-16T09:48:46;101.88;;;44.13;;
78183;SDS011;67442;44.570;18.610;2024-01-16T09:51:16;95.03;;;45.15;;
78183;SDS011;67442;44.570;18.610;2024-01-16T09:53:44;92.43;;;43.33;;
78183;SDS011;67442;44.570;18.610;2024-01-16T09:56:16;89.85;;;44.13;;
78183;SDS011;67442;44.570;18.610;2024-01-16T09:58:54;100.32;;;49.35;;
78183;SDS011;67442;44.570;18.610;2024-01-16T10:01:26;107.25;;;50.70;;
78183;SDS011;67442;44.570;18.610;2024-01-16T10:03:54;104.78;;;46.83;;
78183;SDS011;67442;44.570;18.610;2024-01-16T10:06:21;128.88;;;59.88;;
78183;SDS011;67442;44.570;18.610;2024-01-16T10:08:50;115.95;;;52.60;;
78183;SDS011;67442;44.570;18.610;2024-01-16T10:11:18;131.63;;;59.40;;
78183;SDS011;67442;44.570;18.610;2024-01-16T10:13:45;131.20;;;57.53;;
78183;SDS011;67442;44.570;18.610;2024-01-16T10:16:16;191.88;;;78.88;;
78183;SDS011;67442;44.570;18.610;2024-01-16T10:18:44;133.10;;;56.38;;
78183;SDS011;67442;44.570;18.610;2024-01-16T10:21:21;135.38;;;58.58;;
78183;SDS011;67442;44.570;18.610;2024-01-16T10:23:48;131.07;;;59.95;;
78183;SDS011;67442;44.570;18.610;2024-01-16T10:26:16;124.60;;;52.67;;
78183;SDS011;67442;44.570;18.610;2024-01-16T10:28:46;130.73;;;55.00;;
78183;SDS011;67442;44.570;18.610;2024-01-16T10:31:25;120.18;;;52.80;;
78183;SDS011;67442;44.570;18.610;2024-01-16T10:34:00;116.38;;;51.97;;
78183;SDS011;67442;44.570;18.610;2024-01-16T10:36:32;112.82;;;49.40;;
78183;SDS011;67442;44.570;18.610;2024-01-16T10:39:03;120.25;;;50.50;;
78183;SDS011;67442;44.570;18.610;2024-01-16T10:41:32;159.05;;;83.45;;
78183;SDS011;67442;44.570;18.610;2024-01-16T10:44:05;114.50;;;51.55;;
78183;SDS011;67442;44.570;18.610;2024-01-16T10:46:38;143.70;;;62.58;;
78183;SDS011;67442;44.570;18.610;2024-01-16T10:49:05;164.63;;;70.22;;
78183;SDS011;67442;44.570;18.610;2024-01-16T10:51:33;113.70;;;47.63;;
78183;SDS011;67442;44.570;18.610;2024-01-16T10:54:07;117.32;;;49.03;;
78183;SDS011;67442;44.570;18.610;2024-01-16T10:56:44;111.95;;;48.38;;
78183;SDS011;67442;44.570;18.610;2024-01-16T10:59:18;98.72;;;39.30;;
78183;SDS011;67442;44.570;18.610;2024-01-16T11:01:51;92.90;;;40.78;;
78183;SDS011;67442;44.570;18.610;2024-01-16T11:04:23;158.23;;;58.42;;
78183;SDS011;67442;44.570;18.610;2024-01-16T11:06:52;87.25;;;34.38;;
78183;SDS011;67442;44.570;18.610;2024-01-16T11:09:22;82.90;;;35.83;;
78183;SDS011;67442;44.570;18.610;2024-01-16T11:11:50;62.78;;;25.98;;
78183;SDS011;67442;44.570;18.610;2024-01-16T11:14:23;50.90;;;20.98;;
78183;SDS011;67442;44.570;18.610;2024-01-16T11:16:52;78.35;;;32.60;;
78183;SDS011;67442;44.570;18.610;2024-01-16T11:19:22;68.57;;;31.92;;
78183;SDS011;67442;44.570;18.610;2024-01-16T11:21:51;87.20;;;38.45;;
78183;SDS011;67442;44.570;18.610;2024-01-16T11:24:19;69.00;;;29.10;;
78183;SDS011;67442;44.570;18.610;2024-01-16T11:26:47;60.63;;;26.80;;
78183;SDS011;67442;44.570;18.610;2024-01-16T11:31:55;50.70;;;21.80;;
78183;SDS011;67442;44.570;18.610;2024-01-16T11:37:07;49.95;;;21.08;;
78183;SDS011;67442;44.570;18.610;2024-01-16T11:39:36;42.45;;;17.00;;
78183;SDS011;67442;44.570;18.610;2024-01-16T11:42:03;51.10;;;18.33;;
78183;SDS011;67442;44.570;18.610;2024-01-16T11:47:08;39.65;;;14.07;;
78183;SDS011;67442;44.570;18.610;2024-01-16T11:49:40;41.10;;;17.38;;
78183;SDS011;67442;44.570;18.610;2024-01-16T11:52:08;56.17;;;22.75;;
78183;SDS011;67442;44.570;18.610;2024-01-16T11:54:41;30.70;;;12.98;;
78183;SDS011;67442;44.570;18.610;2024-01-16T12:00:26;42.08;;;22.08;;
78183;SDS011;67442;44.570;18.610;2024-01-16T12:02:57;19.85;;;9.02;;
78183;SDS011;67442;44.570;18.610;2024-01-16T12:05:27;19.67;;;8.57;;
78183;SDS011;67442;44.570;18.610;2024-01-16T12:07:54;15.55;;;7.75;;
78183;SDS011;67442;44.570;18.610;2024-01-16T12:10:22;14.48;;;6.03;;
78183;SDS011;67442;44.570;18.610;2024-01-16T12:12:52;21.13;;;9.43;;
78183;SDS011;67442;44.570;18.610;2024-01-16T12:15:25;25.40;;;13.52;;
78183;SDS011;67442;44.570;18.610;2024-01-16T12:20:22;14.18;;;6.30;;
78183;SDS011;67442;44.570;18.610;2024-01-16T12:22:53;21.85;;;8.45;;
78183;SDS011;67442;44.570;18.610;2024-01-16T12:25:27;33.60;;;11.98;;
78183;SDS011;67442;44.570;18.610;2024-01-16T12:27:59;21.80;;;8.38;;
78183;SDS011;67442;44.570;18.610;2024-01-16T12:30:39;13.68;;;5.95;;
78183;SDS011;67442;44.570;18.610;2024-01-16T12:33:07;20.67;;;8.15;;
78183;SDS011;67442;44.570;18.610;2024-01-16T12:35:35;30.05;;;11.82;;
78183;SDS011;67442;44.570;18.610;2024-01-16T12:38:06;21.45;;;9.15;;
78183;SDS011;67442;44.570;18.610;2024-01-16T12:40:53;67.13;;;23.55;;
78183;SDS011;67442;44.570;18.610;2024-01-16T12:43:21;125.22;;;42.80;;
78183;SDS011;67442;44.570;18.610;2024-01-16T12:45:56;48.85;;;18.70;;
78183;SDS011;67442;44.570;18.610;2024-01-16T12:48:27;24.35;;;8.85;;
78183;SDS011;67442;44.570;18.610;2024-01-16T12:51:04;261.08;;;90.60;;
78183;SDS011;67442;44.570;18.610;2024-01-16T12:53:50;26.15;;;10.55;;
78183;SDS011;67442;44.570;18.610;2024-01-16T12:56:19;19.27;;;7.97;;
78183;SDS011;67442;44.570;18.610;2024-01-16T12:58:49;12.57;;;6.22;;
78183;SDS011;67442;44.570;18.610;2024-01-16T13:01:26;27.10;;;14.93;;
78183;SDS011;67442;44.570;18.610;2024-01-16T13:03:57;15.98;;;6.55;;
78183;SDS011;67442;44.570;18.610;2024-01-16T13:06:30;15.43;;;6.28;;
78183;SDS011;67442;44.570;18.610;2024-01-16T13:09:07;10.60;;;5.00;;
78183;SDS011;67442;44.570;18.610;2024-01-16T13:11:51;10.98;;;3.75;;
78183;SDS011;67442;44.570;18.610;2024-01-16T13:14:26;25.30;;;8.38;;
78183;SDS011;67442;44.570;18.610;2024-01-16T13:16:55;14.75;;;5.82;;
78183;SDS011;67442;44.570;18.610;2024-01-16T13:19:23;46.13;;;18.80;;
78183;SDS011;67442;44.570;18.610;2024-01-16T13:21:51;14.18;;;6.40;;
78183;SDS011;67442;44.570;18.610;2024-01-16T13:24:21;32.42;;;12.40;;
78183;SDS011;67442;44.570;18.610;2024-01-16T13:26:52;41.83;;;14.50;;
78183;SDS011;67442;44.570;18.610;2024-01-16T13:29:20;7.40;;;3.58;;
78183;SDS011;67442;44.570;18.610;2024-01-16T13:31:48;38.53;;;13.55;;
78183;SDS011;67442;44.570;18.610;2024-01-16T13:34:20;20.58;;;7.22;;
78183;SDS011;67442;44.570;18.610;2024-01-16T13:36:48;35.10;;;12.18;;
78183;SDS011;67442;44.570;18.610;2024-01-16T13:39:21;10.43;;;4.38;;
78183;SDS011;67442;44.570;18.610;2024-01-16T13:41:53;10.40;;;3.60;;
78183;SDS011;67442;44.570;18.610;2024-01-16T13:44:24;10.27;;;3.65;;
78183;SDS011;67442;44.570;18.610;2024-01-16T13:46:53;7.90;;;2.92;;
78183;SDS011;67442;44.570;18.610;2024-01-16T13:49:21;6.78;;;3.03;;
78183;SDS011;67442;44.570;18.610;2024-01-16T13:51:48;208.50;;;76.40;;
78183;SDS011;67442;44.570;18.610;2024-01-16T13:54:17;23.52;;;9.18;;
78183;SDS011;67442;44.570;18.610;2024-01-16T13:56:49;23.77;;;8.82;;
78183;SDS011;67442;44.570;18.610;2024-01-16T13:59:18;11.23;;;4.55;;
78183;SDS011;67442;44.570;18.610;2024-01-16T14:02:07;140.45;;;53.75;;
78183;SDS011;67442;44.570;18.610;2024-01-16T14:07:46;29.08;;;11.00;;
78183;SDS011;67442;44.570;18.610;2024-01-16T14:10:16;22.83;;;9.05;;
78183;SDS011;67442;44.570;18.610;2024-01-16T14:12:49;12.13;;;5.05;;
78183;SDS011;67442;44.570;18.610;2024-01-16T14:15:20;16.08;;;4.95;;
78183;SDS011;67442;44.570;18.610;2024-01-16T14:17:54;18.63;;;7.23;;
78183;SDS011;67442;44.570;18.610;2024-01-16T14:20:24;61.70;;;20.17;;
78183;SDS011;67442;44.570;18.610;2024-01-16T14:22:56;51.00;;;18.13;;
78183;SDS011;67442;44.570;18.610;2024-01-16T14:25:25;182.05;;;63.83;;
78183;SDS011;67442;44.570;18.610;2024-01-16T14:27:56;260.02;;;73.82;;
78183;SDS011;67442;44.570;18.610;2024-01-16T14:30:30;103.35;;;33.53;;
78183;SDS011;67442;44.570;18.610;2024-01-16T14:33:03;145.45;;;50.92;;